Time;durP1;ratioP1;P1;durP2;ratioP2;P2;SDS_P1;SDS_P2;PMS_P1;PMS_P2;Temp;Humidity;BMP_temperature;BMP_pressure;BME280_temperature;BME280_humidity;BME280_pressure;Samples;Min_cycle;Max_cycle;Signal;HPM_P1;HPM_P2
2024/04/19 00:01:19;;;;;;;4.43;4.03;;;7.90;99.90;;;;;;5402718;26;20222;-70
2024/04/19 00:03:45;;;;;;;4.80;4.23;;;7.80;99.90;;;;;;5402847;26;20568;-70
2024/04/19 00:06:10;;;;;;;5.20;4.33;;;7.70;99.90;;;;;;5402355;26;20333;-69
2024/04/19 00:08:36;;;;;;;5.57;4.90;;;7.70;99.90;;;;;;5402374;26;20284;-69
2024/04/19 00:11:02;;;;;;;5.17;4.70;;;7.80;99.90;;;;;;5401686;26;20243;-70
2024/04/19 00:13:28;;;;;;;5.20;4.50;;;7.70;99.90;;;;;;5402511;26;20883;-69
2024/04/19 00:15:56;;;;;;;4.73;4.30;;;7.40;99.90;;;;;;5402559;26;20478;-70
2024/04/19 00:18:22;;;;;;;5.40;4.90;;;7.50;99.90;;;;;;5402412;26;20545;-70
2024/04/19 00:20:48;;;;;;;5.20;4.70;;;7.40;99.90;;;;;;5402438;26;20517;-70
2024/04/19 00:23:14;;;;;;;5.13;4.60;;;7.50;99.90;;;;;;5402561;26;20987;-70
2024/04/19 00:25:39;;;;;;;6.20;5.60;;;7.60;99.90;;;;;;5401850;26;20223;-69
2024/04/19 00:28:05;;;;;;;6.13;5.40;;;7.40;99.90;;;;;;5400450;26;20340;-70
2024/04/19 00:30:30;;;;;;;5.40;4.90;;;7.30;99.90;;;;;;5401686;26;20285;-69
2024/04/19 00:32:56;;;;;;;5.67;5.17;;;7.40;99.90;;;;;;5402059;26;20325;-70
2024/04/19 00:35:22;;;;;;;5.93;5.33;;;7.50;99.90;;;;;;5401794;26;20282;-70
2024/04/19 00:37:47;;;;;;;6.40;5.70;;;7.40;99.90;;;;;;5402028;26;20237;-70
2024/04/19 00:40:13;;;;;;;7.40;5.57;;;7.40;99.90;;;;;;5401551;26;20846;-69
2024/04/19 00:42:39;;;;;;;5.33;4.83;;;7.40;99.90;;;;;;5401917;26;20227;-69
2024/04/19 00:45:21;;;;;;;6.47;5.87;;;7.50;99.90;;;;;;5403483;26;20229;-69
2024/04/19 00:47:47;;;;;;;6.83;6.13;;;7.40;99.90;;;;;;5405620;26;20501;-70
2024/04/19 00:50:12;;;;;;;5.97;5.37;;;7.50;99.90;;;;;;5403555;26;20458;-69
2024/04/19 00:52:39;;;;;;;6.60;5.97;;;7.60;99.90;;;;;;5405411;26;20634;-69
2024/04/19 00:55:04;;;;;;;5.93;5.13;;;7.60;99.90;;;;;;5405159;26;20219;-70
2024/04/19 00:57:30;;;;;;;8.67;5.60;;;7.50;99.90;;;;;;5405410;26;20930;-69
2024/04/19 00:59:56;;;;;;;5.40;4.90;;;7.30;99.90;;;;;;5405074;26;20447;-70
2024/04/19 01:02:22;;;;;;;6.07;5.47;;;7.40;99.90;;;;;;5405324;26;20231;-69
2024/04/19 01:04:48;;;;;;;6.17;5.43;;;7.50;99.90;;;;;;5405352;26;20623;-68
2024/04/19 01:07:13;;;;;;;5.93;5.40;;;7.70;99.90;;;;;;5404674;26;20457;-68
2024/04/19 01:09:39;;;;;;;6.43;5.83;;;7.80;99.90;;;;;;5404588;26;20725;-68
2024/04/19 01:12:06;;;;;;;5.37;4.87;;;7.80;99.90;;;;;;5405084;26;20356;-71
2024/04/19 01:14:31;;;;;;;7.70;6.17;;;7.90;99.90;;;;;;5405095;26;20285;-69
2024/04/19 01:16:57;;;;;;;7.20;5.90;;;7.90;99.90;;;;;;5404901;26;20460;-69
2024/04/19 01:19:22;;;;;;;7.23;6.50;;;7.90;99.90;;;;;;5405285;26;20227;-70
2024/04/19 01:21:48;;;;;;;6.27;5.67;;;7.80;99.90;;;;;;5404965;26;20218;-69
2024/04/19 01:24:23;;;;;;;6.07;5.53;;;7.80;99.90;;;;;;5405349;26;20227;-69
2024/04/19 01:26:49;;;;;;;7.10;6.10;;;7.90;99.90;;;;;;5404476;26;20538;-69
2024/04/19 01:29:14;;;;;;;6.67;5.97;;;7.90;99.90;;;;;;5404452;26;20539;-69
2024/04/19 01:31:41;;;;;;;6.20;5.70;;;7.70;99.90;;;;;;5404771;26;20596;-70
2024/04/19 01:34:06;;;;;;;6.10;5.40;;;7.60;99.90;;;;;;5404531;26;20218;-69
2024/04/19 01:36:32;;;;;;;6.47;5.80;;;7.70;99.90;;;;;;5404932;26;20892;-68
2024/04/19 01:38:58;;;;;;;7.30;6.40;;;7.60;99.90;;;;;;5404519;26;20224;-69
2024/04/19 01:41:23;;;;;;;6.80;6.20;;;7.40;99.90;;;;;;5404711;26;20223;-69
2024/04/19 01:43:49;;;;;;;7.10;6.40;;;7.50;99.90;;;;;;5404586;26;20263;-69
2024/04/19 01:46:15;;;;;;;6.23;5.50;;;7.50;99.90;;;;;;5404798;26;20252;-69
2024/04/19 01:48:40;;;;;;;5.57;4.83;;;7.40;99.90;;;;;;5404327;26;21102;-70
2024/04/19 01:51:06;;;;;;;6.10;5.50;;;7.40;99.90;;;;;;5404611;26;20248;-70
2024/04/19 01:53:31;;;;;;;5.93;5.43;;;7.50;99.90;;;;;;5404531;26;20253;-70
2024/04/19 01:55:57;;;;;;;5.70;5.20;;;7.50;99.90;;;;;;5403532;26;20218;-70
2024/04/19 01:58:22;;;;;;;5.97;5.47;;;7.30;99.90;;;;;;5402714;26;20257;-70
2024/04/19 02:00:48;;;;;;;6.77;6.07;;;7.30;99.90;;;;;;5404291;26;20223;-67
2024/04/19 02:03:48;;;;;;;5.90;5.30;;;7.40;99.90;;;;;;5403723;26;20303;-69
2024/04/19 02:06:15;;;;;;;6.87;6.17;;;7.40;99.90;;;;;;5404414;26;20261;-69
2024/04/19 02:08:41;;;;;;;6.83;6.10;;;7.20;99.90;;;;;;5404326;26;20446;-69
2024/04/19 02:11:07;;;;;;;5.90;5.30;;;7.20;99.90;;;;;;5404158;26;20439;-68
2024/04/19 02:13:34;;;;;;;7.60;6.90;;;7.20;99.90;;;;;;5404638;26;21004;-68
2024/04/19 02:16:00;;;;;;;7.00;5.90;;;7.30;99.90;;;;;;5404135;26;20449;-69
2024/04/19 02:18:26;;;;;;;6.20;5.70;;;7.20;99.90;;;;;;5404229;26;20793;-68
2024/04/19 02:20:51;;;;;;;6.10;5.50;;;7.10;99.90;;;;;;5404083;26;20527;-69
2024/04/19 02:23:35;;;;;;;7.83;5.63;;;7.10;99.90;;;;;;5404284;26;20443;-69
2024/04/19 02:26:02;;;;;;;5.80;5.20;;;7.10;99.90;;;;;;5403872;26;20215;-69
2024/04/19 02:31:12;;;;;;;6.70;6.10;;;7.20;99.90;;;;;;5404494;26;21101;-69
2024/04/19 02:33:38;;;;;;;7.00;6.30;;;7.20;99.90;;;;;;5404042;26;20436;-68
2024/04/19 02:36:04;;;;;;;6.80;6.07;;;7.20;99.90;;;;;;5404092;26;20221;-68
2024/04/19 02:38:29;;;;;;;7.27;6.57;;;7.30;99.90;;;;;;5403649;26;20264;-69
2024/04/19 02:40:55;;;;;;;6.93;5.70;;;7.30;99.90;;;;;;5404313;26;20453;-69
2024/04/19 02:43:20;;;;;;;8.60;6.10;;;7.40;99.90;;;;;;5404355;26;20223;-70
2024/04/19 02:45:46;;;;;;;7.13;6.50;;;7.40;99.90;;;;;;5404172;26;20263;-69
2024/04/19 02:48:12;;;;;;;6.77;6.10;;;7.40;99.90;;;;;;5403863;26;20264;-69
2024/04/19 02:50:38;;;;;;;6.80;6.10;;;7.40;99.90;;;;;;5404087;26;21005;-69
2024/04/19 02:53:03;;;;;;;9.50;6.90;;;7.40;99.90;;;;;;5403863;26;20501;-68
2024/04/19 02:55:29;;;;;;;7.43;6.73;;;7.20;99.90;;;;;;5403845;26;20230;-69
2024/04/19 02:57:55;;;;;;;7.97;7.10;;;7.30;99.90;;;;;;5403611;26;20258;-69
2024/04/19 03:00:20;;;;;;;7.83;7.10;;;7.30;99.90;;;;;;5403703;26;20269;-67
2024/04/19 03:02:46;;;;;;;8.27;7.40;;;7.40;99.90;;;;;;5403623;26;20600;-68
2024/04/19 03:05:11;;;;;;;7.90;6.40;;;7.50;99.90;;;;;;5403599;26;20253;-68
2024/04/19 03:07:37;;;;;;;10.30;8.00;;;7.50;99.90;;;;;;5403815;26;20227;-69
2024/04/19 03:10:03;;;;;;;7.23;6.50;;;7.50;99.90;;;;;;5403626;26;20645;-69
2024/04/19 03:12:28;;;;;;;7.47;6.77;;;7.60;99.90;;;;;;5403971;26;20218;-69
2024/04/19 03:14:54;;;;;;;9.43;7.40;;;7.60;99.90;;;;;;5403501;26;20223;-70
2024/04/19 03:17:19;;;;;;;8.57;7.30;;;7.60;99.90;;;;;;5404141;26;20340;-70
2024/04/19 03:19:45;;;;;;;8.37;7.10;;;7.70;99.90;;;;;;5404014;26;20231;-68
2024/04/19 03:22:11;;;;;;;9.20;6.97;;;7.70;99.90;;;;;;5402663;26;20226;-69
2024/04/19 03:24:36;;;;;;;6.93;6.23;;;7.80;99.90;;;;;;5403135;26;20278;-68
2024/04/19 03:27:03;;;;;;;7.27;6.30;;;7.80;99.90;;;;;;5403278;26;20245;-69
2024/04/19 03:29:28;;;;;;;8.33;7.17;;;7.80;99.90;;;;;;5403358;26;20316;-69
2024/04/19 03:31:54;;;;;;;7.70;6.90;;;7.80;99.90;;;;;;5403250;26;20967;-69
2024/04/19 03:34:19;;;;;;;10.30;7.30;;;7.70;99.90;;;;;;5403260;26;20607;-69
2024/04/19 03:36:48;;;;;;;7.50;6.80;;;7.60;99.90;;;;;;5403225;26;20886;-69
2024/04/19 03:39:13;;;;;;;8.90;8.00;;;7.70;99.90;;;;;;5403175;26;20213;-69
2024/04/19 03:41:40;;;;;;;7.57;6.77;;;7.80;99.90;;;;;;5403053;26;20614;-70
2024/04/19 03:46:50;;;;;;;7.77;7.07;;;7.80;99.90;;;;;;5402892;26;21729;-69
2024/04/19 03:49:15;;;;;;;8.57;7.37;;;7.70;99.90;;;;;;5402703;26;20452;-69
2024/04/19 03:51:41;;;;;;;8.23;6.80;;;7.70;99.90;;;;;;5403171;26;20327;-69
2024/04/19 03:54:07;;;;;;;8.50;7.60;;;7.70;99.90;;;;;;5402585;26;20804;-68
2024/04/19 03:56:32;;;;;;;8.10;6.87;;;7.60;99.90;;;;;;5402486;26;20232;-69
2024/04/19 03:58:58;;;;;;;8.67;7.77;;;7.80;99.90;;;;;;5402009;26;20273;-69
2024/04/19 04:01:23;;;;;;;10.17;8.03;;;7.80;99.90;;;;;;5402640;26;20803;-69
2024/04/19 04:03:52;;;;;;;7.63;6.90;;;7.80;99.90;;;;;;5402541;26;20352;-69
2024/04/19 04:06:18;;;;;;;11.53;8.57;;;7.70;99.90;;;;;;5402261;26;20274;-69
2024/04/19 04:08:46;;;;;;;7.70;6.90;;;7.60;99.90;;;;;;5402717;26;20493;-69
2024/04/19 04:11:12;;;;;;;7.87;7.07;;;7.40;99.90;;;;;;5402330;26;20853;-69
2024/04/19 04:13:38;;;;;;;7.10;6.40;;;7.60;99.90;;;;;;5402363;26;20566;-69
2024/04/19 04:16:08;;;;;;;8.37;7.47;;;7.60;99.90;;;;;;5402417;26;20473;-70
2024/04/19 04:18:34;;;;;;;8.50;6.87;;;7.70;99.90;;;;;;5402354;26;20448;-69
2024/04/19 04:21:01;;;;;;;9.00;7.67;;;7.70;99.90;;;;;;5405268;26;20462;-69
2024/04/19 04:23:27;;;;;;;9.07;7.27;;;7.60;99.90;;;;;;5405948;26;20529;-70
2024/04/19 04:25:53;;;;;;;8.03;7.23;;;7.50;99.90;;;;;;5405571;26;20454;-69
2024/04/19 04:28:19;;;;;;;8.10;7.17;;;7.40;99.90;;;;;;5405805;26;20460;-68
2024/04/19 04:30:44;;;;;;;8.63;7.63;;;7.40;99.90;;;;;;5405514;26;20254;-69
2024/04/19 04:33:10;;;;;;;8.83;7.93;;;7.40;99.90;;;;;;5405851;26;20471;-69
2024/04/19 04:35:39;;;;;;;7.47;6.70;;;7.50;99.90;;;;;;5406649;26;20222;-69
2024/04/19 04:38:06;;;;;;;9.47;8.10;;;7.70;99.90;;;;;;5405899;26;20230;-70
2024/04/19 04:40:32;;;;;;;8.03;7.23;;;7.80;99.90;;;;;;5405313;26;20506;-68
2024/04/19 04:43:00;;;;;;;7.47;6.77;;;7.70;99.90;;;;;;5405684;26;20513;-69
2024/04/19 04:45:25;;;;;;;9.40;7.90;;;7.60;99.90;;;;;;5405149;26;20263;-69
2024/04/19 04:47:51;;;;;;;7.53;6.83;;;7.80;99.90;;;;;;5405066;26;20468;-68
2024/04/19 04:50:19;;;;;;;8.43;7.17;;;7.90;99.90;;;;;;5405475;26;20704;-68
2024/04/19 04:52:45;;;;;;;13.37;8.00;;;8.00;99.90;;;;;;5405292;26;20713;-70
2024/04/19 04:55:11;;;;;;;8.43;7.53;;;7.80;99.90;;;;;;5405167;26;20570;-69
2024/04/19 04:57:37;;;;;;;7.67;6.90;;;7.80;99.90;;;;;;5405316;26;20236;-69
2024/04/19 05:00:03;;;;;;;8.67;7.37;;;8.00;99.90;;;;;;5405232;26;21242;-68
2024/04/19 05:02:30;;;;;;;8.20;6.67;;;8.10;99.90;;;;;;5405610;26;20220;-69
2024/04/19 05:04:56;;;;;;;7.23;6.40;;;8.10;99.90;;;;;;5405201;26;21046;-68
2024/04/19 05:07:23;;;;;;;8.93;7.10;;;8.10;99.90;;;;;;5404922;26;20235;-68
2024/04/19 05:09:51;;;;;;;10.20;7.83;;;8.10;99.90;;;;;;5404448;26;20234;-69
2024/04/19 05:12:17;;;;;;;7.47;6.77;;;8.00;99.90;;;;;;5404847;26;20590;-69
2024/04/19 05:14:43;;;;;;;9.63;8.63;;;8.00;99.90;;;;;;5405508;26;20452;-68
2024/04/19 05:17:08;;;;;;;8.43;7.33;;;7.80;99.90;;;;;;5404818;26;20542;-68
2024/04/19 05:19:34;;;;;;;9.77;7.90;;;7.80;99.90;;;;;;5404931;26;20242;-68
2024/04/19 05:21:59;;;;;;;9.67;7.60;;;7.90;99.90;;;;;;5404793;26;20765;-70
2024/04/19 05:24:25;;;;;;;8.43;7.23;;;7.90;99.90;;;;;;5404273;26;20332;-69
2024/04/19 05:26:50;;;;;;;9.53;7.97;;;7.80;99.90;;;;;;5404694;26;20299;-69
2024/04/19 05:29:16;;;;;;;8.10;7.40;;;7.90;99.90;;;;;;5404735;26;20223;-68
2024/04/19 05:31:42;;;;;;;10.43;7.53;;;7.90;99.90;;;;;;5403666;26;20223;-69
2024/04/19 05:34:07;;;;;;;9.80;7.20;;;8.00;99.90;;;;;;5402506;26;20452;-68
2024/04/19 05:36:33;;;;;;;10.80;8.20;;;8.10;99.90;;;;;;5404691;26;20242;-68
2024/04/19 05:38:58;;;;;;;8.23;7.33;;;7.90;99.90;;;;;;5404449;26;20795;-69
2024/04/19 05:41:24;;;;;;;9.73;7.40;;;7.90;99.90;;;;;;5404535;26;20225;-70
2024/04/19 05:43:50;;;;;;;10.60;7.83;;;7.90;99.90;;;;;;5404538;26;20290;-69
2024/04/19 05:46:15;;;;;;;8.40;7.50;;;8.00;99.90;;;;;;5404524;26;20238;-69
2024/04/19 05:48:41;;;;;;;8.00;7.07;;;8.10;99.90;;;;;;5404312;26;20343;-69
2024/04/19 05:51:06;;;;;;;11.40;8.37;;;8.00;99.90;;;;;;5402551;26;20235;-69
2024/04/19 05:53:32;;;;;;;8.37;7.37;;;8.10;99.90;;;;;;5404043;26;20230;-69
2024/04/19 05:55:57;;;;;;;7.90;7.10;;;8.10;99.90;;;;;;5404491;26;20227;-69
2024/04/19 05:58:24;;;;;;;9.03;7.23;;;8.10;99.90;;;;;;5404148;26;20341;-69
2024/04/19 06:00:50;;;;;;;8.40;7.27;;;8.20;99.90;;;;;;5404308;26;20297;-68
2024/04/19 06:03:15;;;;;;;7.87;7.07;;;8.10;99.90;;;;;;5404483;26;20441;-69
2024/04/19 06:05:43;;;;;;;8.40;6.50;;;8.20;99.90;;;;;;5404340;26;20451;-69
2024/04/19 06:08:09;;;;;;;7.30;6.60;;;8.40;99.90;;;;;;5403198;26;20237;-69
2024/04/19 06:10:34;;;;;;;8.30;6.20;;;8.30;99.90;;;;;;5404159;26;20508;-69
2024/04/19 06:13:00;;;;;;;9.23;7.13;;;8.30;99.90;;;;;;5404124;26;20227;-69
2024/04/19 06:15:25;;;;;;;8.57;6.30;;;8.30;99.90;;;;;;5404049;26;20265;-69
2024/04/19 06:17:51;;;;;;;8.40;6.40;;;8.10;99.90;;;;;;5404270;26;20247;-69
2024/04/19 06:20:16;;;;;;;8.97;6.57;;;8.40;99.90;;;;;;5403789;26;20584;-70
2024/04/19 06:22:42;;;;;;;9.20;6.40;;;8.30;99.90;;;;;;5402083;26;20234;-67
2024/04/19 06:25:08;;;;;;;8.55;6.90;;;8.50;99.90;;;;;;5402996;26;20355;-68
2024/04/19 06:27:36;;;;;;;6.83;6.00;;;8.50;99.90;;;;;;5403646;26;20272;-69
2024/04/19 06:30:02;;;;;;;10.23;6.67;;;8.70;99.90;;;;;;5370601;26;20235;-68
2024/04/19 06:32:28;;;;;;;8.38;6.47;;;8.70;99.90;;;;;;5403216;26;20890;-69
2024/04/19 06:34:53;;;;;;;6.13;5.53;;;8.70;99.90;;;;;;5403823;26;20561;-68
2024/04/19 06:37:19;;;;;;;6.13;5.50;;;8.50;99.90;;;;;;5402572;26;21457;-69
2024/04/19 06:39:44;;;;;;;7.60;5.60;;;8.60;99.90;;;;;;5402811;26;20257;-69
2024/04/19 06:42:10;;;;;;;6.73;6.10;;;8.70;99.90;;;;;;5403143;26;20215;-70
2024/04/19 06:44:35;;;;;;;6.23;5.50;;;8.70;99.90;;;;;;5403314;26;20290;-67
2024/04/19 06:47:01;;;;;;;9.83;6.17;;;8.80;99.90;;;;;;5403550;26;20257;-69
2024/04/19 06:49:26;;;;;;;6.10;5.27;;;8.90;99.90;;;;;;5403357;26;20679;-68
2024/04/19 06:51:52;;;;;;;5.50;5.00;;;9.00;99.90;;;;;;5403484;26;20326;-71
2024/04/19 06:54:17;;;;;;;5.47;4.97;;;9.10;99.90;;;;;;5403090;26;20218;-71
2024/04/19 06:56:43;;;;;;;6.00;5.10;;;9.00;99.90;;;;;;5403035;26;20232;-68
2024/04/19 06:59:09;;;;;;;6.50;5.10;;;9.10;99.90;;;;;;5402959;26;21178;-68
2024/04/19 07:01:38;;;;;;;6.00;5.40;;;9.10;99.90;;;;;;5403463;26;20217;-68
2024/04/19 07:04:03;;;;;;;7.03;5.13;;;9.00;99.90;;;;;;5400777;26;20491;-69
2024/04/19 07:06:29;;;;;;;6.27;4.90;;;9.00;99.90;;;;;;5402773;26;20959;-68
2024/04/19 07:08:55;;;;;;;5.90;5.00;;;9.00;99.90;;;;;;5403404;26;20257;-69
2024/04/19 07:11:20;;;;;;;5.37;4.87;;;9.10;99.90;;;;;;5402672;26;20673;-69
2024/04/19 07:13:46;;;;;;;5.37;4.87;;;9.30;99.90;;;;;;5403037;26;20220;-67
2024/04/19 07:16:15;;;;;;;5.27;4.30;;;9.30;99.90;;;;;;5402828;26;20295;-69
2024/04/19 07:18:46;;;;;;;7.53;4.80;;;9.30;99.90;;;;;;5402804;26;20439;-70
2024/04/19 07:21:11;;;;;;;5.20;4.70;;;8.90;99.90;;;;;;5403196;26;20507;-70
2024/04/19 07:23:37;;;;;;;6.67;4.97;;;9.10;99.90;;;;;;5403257;26;20510;-70
2024/04/19 07:26:03;;;;;;;5.47;4.60;;;9.10;99.90;;;;;;5402377;26;20338;-68
2024/04/19 07:28:28;;;;;;;5.27;4.73;;;9.00;99.90;;;;;;5403036;26;20251;-71
2024/04/19 07:30:54;;;;;;;6.73;5.70;;;9.10;99.90;;;;;;5402558;26;20222;-68
2024/04/19 07:33:19;;;;;;;5.67;4.47;;;9.30;99.90;;;;;;5402802;26;20219;-70
2024/04/19 07:35:46;;;;;;;4.80;4.40;;;9.30;99.90;;;;;;5402784;26;20248;-69
2024/04/19 07:38:12;;;;;;;5.90;5.10;;;9.30;99.90;;;;;;5402599;26;20258;-71
2024/04/19 07:40:37;;;;;;;5.87;5.37;;;9.20;99.90;;;;;;5402761;26;20442;-70
2024/04/19 07:43:04;;;;;;;5.90;5.27;;;9.20;99.90;;;;;;5402523;26;20260;-68
2024/04/19 07:45:30;;;;;;;5.30;4.80;;;9.20;99.90;;;;;;5402692;26;20232;-68
2024/04/19 07:47:55;;;;;;;5.70;4.97;;;9.00;99.90;;;;;;5402652;26;21002;-69
2024/04/19 07:50:21;;;;;;;7.53;5.40;;;9.10;99.90;;;;;;5402747;26;20498;-68
2024/04/19 07:52:48;;;;;;;6.40;5.07;;;8.80;99.90;;;;;;5402227;26;20274;-68
2024/04/19 07:55:15;;;;;;;4.97;4.47;;;8.70;99.90;;;;;;5404346;26;20516;-67
2024/04/19 07:57:40;;;;;;;5.47;4.90;;;8.60;99.90;;;;;;5405970;26;20517;-68
2024/04/19 08:00:11;;;;;;;5.23;4.73;;;8.70;99.90;;;;;;5405730;26;20446;-68
2024/04/19 08:02:36;;;;;;;5.30;4.80;;;8.70;99.90;;;;;;5405998;26;20263;-68
2024/04/19 08:05:02;;;;;;;5.10;4.60;;;8.70;99.90;;;;;;5404097;26;20996;-69
2024/04/19 08:07:28;;;;;;;6.30;4.47;;;8.70;99.90;;;;;;5405468;26;20234;-70
2024/04/19 08:09:54;;;;;;;4.57;4.17;;;8.50;99.90;;;;;;5406098;26;20292;-71
2024/04/19 08:12:19;;;;;;;5.83;5.07;;;8.70;99.90;;;;;;5405725;26;20440;-69
2024/04/19 08:14:45;;;;;;;4.67;4.27;;;8.60;99.90;;;;;;5405601;26;20281;-69
2024/04/19 08:17:11;;;;;;;5.50;5.00;;;8.80;99.90;;;;;;5405607;26;20223;-69
2024/04/19 08:19:36;;;;;;;5.83;5.23;;;8.60;99.90;;;;;;5406021;26;20220;-70
2024/04/19 08:22:02;;;;;;;5.60;5.00;;;8.60;99.90;;;;;;5405837;26;20607;-71
2024/04/19 08:24:28;;;;;;;6.07;5.47;;;8.50;99.90;;;;;;5405778;26;20771;-69
2024/04/19 08:26:54;;;;;;;5.57;5.00;;;8.30;99.90;;;;;;5405526;26;20284;-68
2024/04/19 08:29:20;;;;;;;6.00;5.43;;;8.70;99.90;;;;;;5405714;26;20501;-68
2024/04/19 08:31:45;;;;;;;5.97;4.50;;;8.80;99.90;;;;;;5405866;26;20447;-71
2024/04/19 08:34:12;;;;;;;4.80;4.03;;;8.60;99.90;;;;;;5404411;26;20876;-69
2024/04/19 08:36:37;;;;;;;5.80;5.20;;;8.60;99.90;;;;;;5405078;26;20234;-68
2024/04/19 08:39:03;;;;;;;6.40;5.80;;;8.60;99.90;;;;;;5404970;26;20504;-69
2024/04/19 08:41:30;;;;;;;5.67;5.10;;;8.50;99.90;;;;;;5404690;26;20235;-69
2024/04/19 08:44:00;;;;;;;9.40;5.20;;;8.20;99.90;;;;;;5405640;26;20219;-68
2024/04/19 08:46:32;;;;;;;6.40;4.87;;;8.30;99.90;;;;;;5404638;26;20457;-70
2024/04/19 08:49:08;;;;;;;4.80;4.37;;;8.30;99.90;;;;;;5404981;26;20441;-69
2024/04/19 08:51:37;;;;;;;5.13;4.63;;;8.20;99.90;;;;;;5404267;26;20351;-69
2024/04/19 08:54:04;;;;;;;5.30;4.80;;;8.10;99.90;;;;;;5404983;26;20274;-70
2024/04/19 08:56:30;;;;;;;4.97;4.40;;;8.20;99.90;;;;;;5404756;26;21470;-68
2024/04/19 08:58:56;;;;;;;5.43;4.93;;;8.30;99.90;;;;;;5402345;26;20411;-69
2024/04/19 09:01:22;;;;;;;5.50;4.97;;;8.60;99.90;;;;;;5405207;26;20828;-70
2024/04/19 09:03:48;;;;;;;5.70;5.20;;;8.30;99.90;;;;;;5405156;26;20495;-70
2024/04/19 09:06:14;;;;;;;5.40;5.00;;;8.30;99.90;;;;;;5404435;26;20461;-69
2024/04/19 09:08:41;;;;;;;6.20;4.13;;;8.00;99.90;;;;;;5404847;26;20748;-69
2024/04/19 09:11:14;;;;;;;4.10;3.70;;;7.90;99.90;;;;;;5405052;26;20216;-70
2024/04/19 09:13:42;;;;;;;5.10;4.60;;;8.20;99.90;;;;;;5404640;26;21452;-70
2024/04/19 09:16:08;;;;;;;5.17;4.67;;;8.20;99.90;;;;;;5404462;26;20482;-72
2024/04/19 09:18:34;;;;;;;4.67;3.90;;;8.50;99.90;;;;;;5404202;26;20450;-72
2024/04/19 09:21:00;;;;;;;3.53;3.27;;;8.20;99.90;;;;;;5404978;26;21083;-72
2024/04/19 09:23:25;;;;;;;3.97;3.60;;;8.30;99.90;;;;;;5404691;26;20452;-71
2024/04/19 09:25:55;;;;;;;4.53;4.13;;;8.10;99.90;;;;;;5403315;26;20219;-70
2024/04/19 09:28:22;;;;;;;3.77;3.47;;;8.00;99.90;;;;;;5404290;26;20282;-69
2024/04/19 09:30:52;;;;;;;4.47;4.07;;;8.10;99.90;;;;;;5404589;26;20511;-69
2024/04/19 09:33:18;;;;;;;4.97;4.57;;;7.80;99.90;;;;;;5404900;26;20505;-70
2024/04/19 09:35:45;;;;;;;4.87;4.40;;;7.80;99.90;;;;;;5404364;26;20501;-70
2024/04/19 09:38:12;;;;;;;4.73;4.33;;;7.70;99.90;;;;;;5404350;26;20613;-70
2024/04/19 09:40:38;;;;;;;5.57;4.27;;;7.80;99.90;;;;;;5404305;26;20560;-70
2024/04/19 09:43:08;;;;;;;4.47;4.07;;;7.80;99.90;;;;;;5403739;26;20436;-69
2024/04/19 09:45:47;;;;;;;5.40;4.90;;;7.90;99.90;;;;;;5404005;26;20435;-69
2024/04/19 09:48:19;;;;;;;5.07;4.57;;;8.00;99.90;;;;;;5404231;26;20588;-71
2024/04/19 09:50:49;;;;;;;5.70;4.50;;;8.20;99.90;;;;;;5404364;26;20531;-68
2024/04/19 09:53:42;;;;;;;5.67;5.10;;;7.90;99.90;;;;;;5403824;26;20559;-69
2024/04/19 09:56:14;;;;;;;4.97;4.47;;;7.80;99.90;;;;;;5393960;26;20461;-70
2024/04/19 09:58:41;;;;;;;4.80;4.40;;;7.70;99.90;;;;;;5404002;26;20526;-68
2024/04/19 10:01:08;;;;;;;4.93;4.37;;;8.00;99.90;;;;;;5404926;26;20443;-70
2024/04/19 10:03:35;;;;;;;6.00;5.50;;;8.00;99.90;;;;;;5402382;26;20360;-69
2024/04/19 10:06:05;;;;;;;5.07;4.63;;;8.20;99.90;;;;;;5403731;26;20298;-68
2024/04/19 10:08:31;;;;;;;4.40;4.00;;;8.20;99.90;;;;;;5403999;26;20498;-69
2024/04/19 10:10:57;;;;;;;5.30;4.67;;;8.00;99.90;;;;;;5404214;26;20446;-71
2024/04/19 10:13:25;;;;;;;4.80;4.40;;;7.80;99.90;;;;;;5403630;26;20219;-68
2024/04/19 10:15:50;;;;;;;5.10;4.60;;;7.80;99.90;;;;;;5403994;26;20452;-69
2024/04/19 10:18:16;;;;;;;5.57;5.07;;;8.00;99.90;;;;;;5402683;26;20568;-69
2024/04/19 10:20:42;;;;;;;6.47;5.90;;;7.90;99.90;;;;;;5404043;26;20689;-69
2024/04/19 10:23:14;;;;;;;5.40;4.90;;;7.80;99.90;;;;;;5403366;26;20881;-67
2024/04/19 10:25:39;;;;;;;6.57;5.90;;;7.70;99.90;;;;;;5403218;26;20740;-71
2024/04/19 10:28:09;;;;;;;8.40;5.60;;;7.90;99.90;;;;;;5403650;26;20675;-71
2024/04/19 10:30:35;;;;;;;6.37;5.77;;;7.70;99.90;;;;;;5401861;26;20703;-69
2024/04/19 10:33:05;;;;;;;7.33;6.63;;;7.90;99.90;;;;;;5402328;26;20563;-72
2024/04/19 10:35:57;;;;;;;6.87;5.30;;;7.90;99.90;;;;;;5402514;26;20448;-70
2024/04/19 10:38:25;;;;;;;7.77;6.63;;;7.90;99.90;;;;;;5396681;26;20461;-70
2024/04/19 10:40:51;;;;;;;8.23;6.43;;;8.20;99.90;;;;;;5404001;26;20491;-71
2024/04/19 10:43:17;;;;;;;6.00;5.30;;;8.00;99.90;;;;;;5403634;26;22050;-72
2024/04/19 10:45:44;;;;;;;6.40;5.80;;;8.00;99.90;;;;;;5403009;26;20239;-69
2024/04/19 10:48:10;;;;;;;6.40;5.80;;;8.00;99.90;;;;;;5403540;26;20344;-72
2024/04/19 10:50:36;;;;;;;5.60;5.10;;;8.10;99.90;;;;;;5404254;26;20452;-71
2024/04/19 10:53:01;;;;;;;5.93;5.43;;;8.10;99.90;;;;;;5404096;26;20496;-69
2024/04/19 10:55:28;;;;;;;6.50;5.73;;;8.00;99.90;;;;;;5404133;26;20918;-71
2024/04/19 10:57:55;;;;;;;6.40;5.80;;;8.10;99.90;;;;;;5402887;26;20802;-67
2024/04/19 11:00:22;;;;;;;7.20;5.90;;;8.20;99.90;;;;;;5403992;26;20797;-70
2024/04/19 11:02:48;;;;;;;6.80;6.20;;;8.40;99.90;;;;;;5404215;26;20433;-71
2024/04/19 11:05:14;;;;;;;5.33;4.57;;;8.40;99.90;;;;;;5403499;26;20501;-68
2024/04/19 11:07:40;;;;;;;5.03;4.53;;;8.40;99.90;;;;;;5431830;26;20577;-72
2024/04/19 11:10:06;;;;;;;4.60;4.20;;;8.40;99.90;;;;;;5403355;26;20451;-68
2024/04/19 11:12:33;;;;;;;5.13;4.63;;;8.40;99.90;;;;;;5403659;26;20223;-69
2024/04/19 11:15:01;;;;;;;4.40;4.00;;;8.20;99.90;;;;;;5403366;26;21119;-70
2024/04/19 11:17:27;;;;;;;3.80;3.50;;;8.20;99.90;;;;;;5403010;26;20460;-69
2024/04/19 11:19:52;;;;;;;4.73;4.33;;;8.10;99.90;;;;;;5403535;26;20441;-69
2024/04/19 11:22:18;;;;;;;5.43;4.47;;;8.10;99.90;;;;;;5403220;26;20698;-68
2024/04/19 11:24:44;;;;;;;4.33;3.93;;;8.10;99.90;;;;;;5403261;26;20217;-68
2024/04/19 11:27:12;;;;;;;4.63;4.23;;;8.10;99.90;;;;;;5403008;26;20647;-69
2024/04/19 11:29:38;;;;;;;6.73;4.97;;;8.10;99.90;;;;;;5402160;26;21803;-68
2024/04/19 11:32:07;;;;;;;4.00;3.07;;;8.00;99.90;;;;;;5405225;26;20438;-70
2024/04/19 11:34:33;;;;;;;4.47;4.07;;;7.70;99.90;;;;;;5404440;26;20496;-71
2024/04/19 11:37:03;;;;;;;3.33;3.03;;;7.70;99.90;;;;;;5403617;26;20477;-68
2024/04/19 11:39:36;;;;;;;3.30;3.00;;;7.50;99.90;;;;;;5404169;26;20447;-70
2024/04/19 11:42:02;;;;;;;3.70;3.40;;;7.60;99.90;;;;;;5403253;26;20548;-69
2024/04/19 11:44:27;;;;;;;3.23;2.93;;;7.70;99.90;;;;;;5402529;26;20512;-67
2024/04/19 11:46:54;;;;;;;5.43;2.60;;;7.70;99.90;;;;;;5402544;26;20230;-69
2024/04/19 11:49:19;;;;;;;3.17;2.87;;;7.50;99.90;;;;;;5402319;26;20734;-67
2024/04/19 11:51:48;;;;;;;5.80;3.13;;;7.60;99.90;;;;;;5402496;26;20488;-69
2024/04/19 11:54:15;;;;;;;3.03;2.73;;;7.40;99.90;;;;;;5402248;26;20705;-70
2024/04/19 11:56:40;;;;;;;3.40;3.10;;;7.40;99.90;;;;;;5402112;26;20501;-68
2024/04/19 11:59:06;;;;;;;7.50;3.40;;;7.50;99.90;;;;;;5402528;26;20462;-70
2024/04/19 12:01:31;;;;;;;7.20;3.70;;;7.40;99.90;;;;;;5402388;26;20714;-70
2024/04/19 12:03:57;;;;;;;4.90;2.87;;;7.50;99.90;;;;;;5402544;26;20328;-69
2024/04/19 12:06:23;;;;;;;3.20;2.90;;;7.50;99.90;;;;;;5402004;26;20731;-69
2024/04/19 12:08:49;;;;;;;3.57;3.20;;;7.40;99.90;;;;;;5402517;26;20978;-69
2024/04/19 12:11:15;;;;;;;3.00;2.77;;;7.50;99.90;;;;;;5401848;26;20330;-69
2024/04/19 12:13:40;;;;;;;2.30;2.10;;;7.40;99.90;;;;;;5402290;26;20452;-68
2024/04/19 12:16:06;;;;;;;2.53;2.20;;;7.50;99.90;;;;;;5401792;26;21150;-70
2024/04/19 12:18:32;;;;;;;2.90;2.60;;;7.30;99.90;;;;;;5401810;26;21455;-69
2024/04/19 12:20:57;;;;;;;2.80;2.60;;;7.40;99.90;;;;;;5402235;26;20532;-69
2024/04/19 12:23:23;;;;;;;3.00;2.57;;;7.50;99.90;;;;;;5401710;26;20218;-68
2024/04/19 12:25:48;;;;;;;9.73;3.50;;;7.40;99.90;;;;;;5401650;26;20217;-69
2024/04/19 12:28:14;;;;;;;4.03;2.23;;;7.50;99.90;;;;;;5401312;26;20281;-68
2024/04/19 12:30:40;;;;;;;2.80;2.50;;;7.60;99.90;;;;;;5401315;26;20227;-69
2024/04/19 12:33:05;;;;;;;2.00;1.80;;;7.70;99.90;;;;;;5401278;26;20726;-70
2024/04/19 12:35:34;;;;;;;2.30;2.10;;;7.60;99.90;;;;;;5401784;26;20458;-69
2024/04/19 12:38:00;;;;;;;2.53;2.17;;;7.60;99.90;;;;;;5401572;26;20251;-70
2024/04/19 12:40:26;;;;;;;3.30;1.93;;;7.50;99.90;;;;;;5401756;26;20515;-68
2024/04/19 12:42:51;;;;;;;3.30;2.20;;;7.50;99.90;;;;;;5404944;26;20317;-68
2024/04/19 12:45:17;;;;;;;1.93;1.83;;;7.80;99.90;;;;;;5405069;26;20576;-68
2024/04/19 12:47:43;;;;;;;2.20;1.93;;;7.70;99.90;;;;;;5405141;26;20744;-70
2024/04/19 12:50:08;;;;;;;2.83;1.87;;;8.00;99.90;;;;;;5404890;26;20261;-71
2024/04/19 12:52:34;;;;;;;2.07;1.90;;;8.10;99.90;;;;;;5404909;26;20273;-70
2024/04/19 12:54:59;;;;;;;2.13;2.00;;;8.10;99.90;;;;;;5404531;26;20404;-69
2024/04/19 12:57:26;;;;;;;1.83;1.73;;;8.10;99.90;;;;;;5404782;26;20277;-70
2024/04/19 12:59:52;;;;;;;2.10;1.90;;;8.10;99.90;;;;;;5405054;26;20219;-75